createdAt,value
2018-08-25T00:00:55.763Z,17.74
2018-08-25T00:06:56.616Z,17.77
2018-08-25T00:10:57.331Z,17.44
2018-08-25T00:16:58.097Z,18.18
2018-08-25T00:20:58.862Z,17.53
2018-08-25T00:26:59.687Z,17.08
2018-08-25T00:33:00.541Z,17.59
2018-08-25T00:37:01.334Z,16.97
2018-08-25T00:43:02.103Z,18.41
2018-08-25T00:47:02.861Z,16.88
2018-08-25T00:49:03.575Z,17.81
2018-08-25T00:53:04.303Z,18.04
2018-08-25T00:59:05.154Z,17.93
2018-08-25T01:03:05.983Z,17.5
2018-08-25T01:09:06.746Z,18.63
2018-08-25T01:13:07.428Z,18.27
2018-08-25T01:15:08.477Z,18.19
2018-08-25T01:19:09.230Z,18.91
2018-08-25T01:25:09.995Z,19.14
2018-08-25T01:29:10.788Z,19.02
2018-08-25T01:35:11.651Z,18.71
2018-08-25T01:39:12.469Z,18.4
2018-08-25T01:41:13.287Z,19.78
2018-08-25T01:45:14.364Z,18.63
2018-08-25T01:51:19.728Z,19.84
2018-08-25T01:55:20.638Z,19.22
2018-08-25T02:01:21.402Z,18.25
2018-08-25T02:05:22.183Z,17.08
2018-08-25T02:07:22.831Z,17.74
2018-08-25T02:11:23.605Z,18.26
2018-08-25T02:17:24.468Z,18.2
2018-08-25T02:21:25.125Z,17.65
2018-08-25T02:27:25.975Z,18.77
2018-08-25T02:31:26.780Z,17.65
2018-08-25T02:33:27.558Z,18.75
2018-08-25T02:37:28.359Z,18.32
2018-08-25T02:43:28.948Z,18.15
2018-08-25T02:47:29.686Z,17.86
2018-08-25T02:53:30.415Z,18.7
2018-08-25T02:57:31.182Z,17.42
2018-08-25T02:59:31.951Z,17.66
2018-08-25T03:03:32.688Z,17.79
2018-08-25T03:09:33.339Z,18.14
2018-08-25T03:13:34.100Z,18.27
2018-08-25T03:19:34.765Z,18.3
2018-08-25T03:23:35.577Z,17.94
2018-08-25T03:25:36.329Z,18.97
2018-08-25T03:29:37.074Z,18.46
2018-08-25T03:35:37.780Z,18.89
2018-08-25T03:39:38.574Z,17.87
2018-08-25T03:45:39.267Z,17.77
2018-08-25T03:49:40.084Z,17.78
2018-08-25T03:51:40.765Z,18.19
2018-08-25T03:55:41.730Z,17.92
2018-08-25T04:01:42.673Z,17.8
2018-08-25T04:05:43.271Z,17.67
2018-08-25T04:11:44.046Z,18.04
2018-08-25T04:17:44.796Z,18.34
2018-08-25T04:21:45.517Z,17.29
2018-08-25T04:27:46.215Z,17.68
2018-08-25T04:31:47.037Z,17.6
2018-08-25T04:37:47.803Z,16.9
2018-08-25T04:43:48.601Z,17.39
2018-08-25T04:47:49.331Z,16.9
2018-08-25T04:53:50.051Z,17.32
2018-08-25T04:57:50.766Z,18.28
2018-08-25T05:03:51.647Z,18.9
2018-08-25T05:09:52.577Z,17.91
2018-08-25T05:13:53.202Z,17.51
2018-08-25T05:19:53.977Z,18.15
2018-08-25T05:23:54.749Z,18.01
2018-08-25T05:29:55.491Z,17.42
2018-08-25T05:35:56.296Z,18.12
2018-08-25T05:39:57.082Z,17.09
2018-08-25T05:45:57.845Z,19.02
2018-08-25T05:49:58.576Z,18.64
2018-08-25T05:55:59.376Z,16.77
2018-08-25T06:02:00.206Z,18.19
2018-08-25T06:06:00.964Z,17.19
2018-08-25T06:12:01.731Z,18.61
2018-08-25T06:16:02.419Z,18.8
2018-08-25T06:18:03.181Z,19.08
2018-08-25T06:22:03.885Z,18.33
2018-08-25T06:28:04.657Z,19.09
2018-08-25T06:32:05.452Z,19.37
2018-08-25T06:38:06.439Z,18.27
2018-08-25T06:42:07.173Z,17.34
2018-08-25T06:44:07.848Z,18.81
2018-08-25T06:48:08.630Z,18.59
2018-08-25T06:54:09.376Z,18.55
2018-08-25T06:58:10.173Z,18.7
2018-08-25T07:04:10.882Z,18.86
2018-08-25T07:08:11.702Z,18.27
2018-08-25T07:10:12.473Z,18.72
2018-08-25T07:14:13.181Z,17.77
2018-08-25T07:20:14.011Z,19.05
2018-08-25T10:27:15.542Z,12.35
2018-08-25T10:27:15.707Z,19.1
2018-08-25T10:27:15.796Z,18.77
2018-08-25T10:27:15.957Z,17.84
2018-08-25T10:27:16.694Z,17.16
2018-08-25T10:27:18.846Z,17.12
2018-08-25T10:27:19.338Z,17.25
2018-08-25T10:27:19.490Z,16.32
2018-08-25T10:27:19.615Z,17.32
2018-08-25T10:27:19.763Z,15.83
2018-08-25T10:27:19.909Z,16
2018-08-25T10:27:20.069Z,15.54
2018-08-25T10:27:20.254Z,16.87
2018-08-25T10:27:20.344Z,15.13
2018-08-25T10:27:20.465Z,13.14
2018-08-25T10:27:20.590Z,13.49
2018-08-25T10:27:20.823Z,13.97
2018-08-25T10:27:20.912Z,12.85
2018-08-25T10:27:21.081Z,11.9
2018-08-25T10:27:21.353Z,11.62
2018-08-25T10:27:21.505Z,11.53
2018-08-25T10:27:21.607Z,12.14
2018-08-25T10:27:21.783Z,11.41
2018-08-25T10:27:21.955Z,11.88
2018-08-25T10:27:22.109Z,12.99
2018-08-25T10:27:22.212Z,19.19
2018-08-25T10:27:22.338Z,12.68
2018-08-25T10:27:22.971Z,11.67
2018-08-25T10:27:23.148Z,12.74
2018-08-25T10:27:23.587Z,12.9
2018-08-25T10:27:25.306Z,12.14
2018-08-25T10:27:25.613Z,13.61
2018-08-25T10:27:25.924Z,13.38
2018-08-25T10:27:26.044Z,13.44
2018-08-25T10:27:26.186Z,14.04
2018-08-25T10:27:26.339Z,13.24
2018-08-25T10:33:27.600Z,13.38
2018-08-25T10:37:28.319Z,12.72
2018-08-25T10:43:29.093Z,12.8
2018-08-25T10:47:29.946Z,12.8
2018-08-25T10:49:31.096Z,12.4
2018-08-25T10:53:31.972Z,13.33
2018-08-25T10:59:32.843Z,12.61
2018-08-25T11:03:37.444Z,12.26
2018-08-25T11:09:38.248Z,12.39
2018-08-25T11:13:40.459Z,12.45
2018-08-25T11:15:41.193Z,12.64
2018-08-25T11:19:42.987Z,12.58
2018-08-25T11:25:43.943Z,12.72
2018-08-25T11:29:45.120Z,12.55
2018-08-25T11:35:48.510Z,11.85
2018-08-25T11:39:50.909Z,12.22
2018-08-25T11:41:54.469Z,13.04
2018-08-25T11:45:59.107Z,12.38
2018-08-25T11:52:03.680Z,13.22
2018-08-25T11:56:08.678Z,12.99
2018-08-25T12:02:16.319Z,12.81
2018-08-25T12:06:20.841Z,12.75
2018-08-25T12:12:26.096Z,13.01
2018-08-25T12:16:27.261Z,12.47
2018-08-25T12:18:27.987Z,12.43
2018-08-25T12:22:31.321Z,12.57
2018-08-25T12:28:35.283Z,13.02
2018-08-25T12:32:40.583Z,12.55
2018-08-25T12:38:44.357Z,11.56
2018-08-25T12:42:46.725Z,12.6
2018-08-25T12:48:47.860Z,12.48
2018-08-25T12:54:48.583Z,12.99
2018-08-25T12:58:50.003Z,12.16
2018-08-25T13:04:53.661Z,12.55
2018-08-25T13:08:54.798Z,12.06
2018-08-25T13:14:55.655Z,13.27
2018-08-25T13:20:57.840Z,12.83
2018-08-25T13:25:03.934Z,12.84
2018-08-25T13:31:04.856Z,13.04
2018-08-25T13:35:06.418Z,13.19
2018-08-25T13:41:07.220Z,14.31
2018-08-25T13:45:09.357Z,15.54
2018-08-25T13:47:10.747Z,13.11
2018-08-25T13:51:13.180Z,13.2
2018-08-25T13:57:17.331Z,12.01
2018-08-25T14:01:20.203Z,12.12
2018-08-25T14:07:24.990Z,11.78
2018-08-25T14:11:28.648Z,12.28
2018-08-25T14:17:29.434Z,12.61
2018-08-25T14:23:31.054Z,13.73
2018-08-25T14:27:32.105Z,13.63
2018-08-25T14:33:32.849Z,14.95
2018-08-25T14:37:33.674Z,16.36
2018-08-25T14:43:34.840Z,15.42
2018-08-25T14:49:36.885Z,15.62
2018-08-25T14:53:38.114Z,15.34
2018-08-25T14:59:39.760Z,16.22
2018-08-25T15:03:42.242Z,15.68
2018-08-25T15:09:48.040Z,15.28
2018-08-25T15:15:48.780Z,15.25
2018-08-25T15:19:52.383Z,14.01
2018-08-25T15:25:53.534Z,15.46
2018-08-25T15:29:55.296Z,14.88
2018-08-25T15:35:59.196Z,15.33
2018-08-25T15:42:05.557Z,15.28
2018-08-25T15:46:07.033Z,15.4
2018-08-25T15:56:14.869Z,14.85
2018-08-25T15:56:15.480Z,15.6
2018-08-25T16:02:17.989Z,14.15
2018-08-25T16:08:23.784Z,14.37
2018-08-25T16:12:24.702Z,14.27
2018-08-25T16:18:25.986Z,13.87
2018-08-25T16:22:26.765Z,13.28
2018-08-25T16:28:29.962Z,13.49
2018-08-25T16:34:31.545Z,13.73
2018-08-25T16:38:32.546Z,12.56
2018-08-25T16:44:33.774Z,13.75
2018-08-25T16:48:35.629Z,13.76
2018-08-25T16:50:36.379Z,14.01
2018-08-25T16:54:38.614Z,14.41
2018-08-25T17:00:41.813Z,14
2018-08-25T17:04:42.595Z,13.8
2018-08-25T17:10:43.346Z,13.98
2018-08-25T17:14:44.624Z,14.35
2018-08-25T17:16:47.304Z,14.03
2018-08-25T17:20:53.077Z,13.56
2018-08-25T17:26:54.005Z,14.06
2018-08-25T17:30:59.715Z,13.42
2018-08-25T17:37:01.627Z,16.29
2018-08-25T17:41:03.858Z,15.83
2018-08-25T17:43:05.384Z,15.55
2018-08-25T17:47:06.347Z,14.45
2018-08-25T17:53:07.188Z,14.26
2018-08-25T17:57:08.255Z,14.02
2018-08-25T18:03:09.085Z,10.17
2018-08-25T18:09:10.736Z,10.44
2018-08-25T18:13:11.809Z,10.34
2018-08-25T18:19:12.490Z,10.09
2018-08-25T18:23:13.538Z,9.9
2018-08-25T18:29:14.302Z,11.57
2018-08-25T18:35:15.072Z,9.6
2018-08-25T18:39:16.452Z,10.1
2018-08-25T18:45:19.050Z,10.07
2018-08-25T18:49:20.055Z,10.1
2018-08-25T18:51:21.542Z,10.69
2018-08-25T18:55:24.284Z,9.91
2018-08-25T19:01:25.004Z,10.89
2018-08-25T19:05:26.043Z,11.42
2018-08-25T19:11:30.693Z,11.32
2018-08-25T19:15:33.623Z,10.03
2018-08-25T19:17:34.407Z,10.58
2018-08-25T19:21:36.624Z,10.26
2018-08-25T19:27:39.407Z,10.04
2018-08-25T19:31:40.217Z,8.93
2018-08-25T19:37:41.007Z,9.85
2018-08-25T19:43:41.889Z,8.97
2018-08-25T19:47:42.626Z,9.22
2018-08-25T19:53:43.665Z,12.4
2018-08-25T19:57:44.403Z,11.61
2018-08-25T20:03:45.173Z,10.29
2018-08-25T20:09:45.985Z,10.58
2018-08-25T20:13:46.869Z,10.28
2018-08-25T20:19:47.751Z,9.82
2018-08-25T20:23:48.820Z,10.37
2018-08-25T20:25:49.480Z,10.53
2018-08-25T20:29:50.314Z,9.9
2018-08-25T20:35:51.125Z,9.2
2018-08-25T20:39:51.858Z,8.92
2018-08-25T20:45:52.940Z,9.76
2018-08-25T20:51:53.685Z,8.59
2018-08-25T20:55:54.387Z,9.54
2018-08-25T21:01:55.198Z,8.54
2018-08-25T21:05:55.901Z,9.21
2018-08-25T21:07:56.577Z,8.86
2018-08-25T21:11:57.250Z,9.32
2018-08-25T21:17:58.256Z,8.8
2018-08-25T21:21:59.946Z,8.73
2018-08-25T21:28:00.680Z,8.6
2018-08-25T21:32:01.391Z,9.03
2018-08-25T21:34:02.848Z,10.32
2018-08-25T21:38:04.236Z,9.44
2018-08-25T21:44:08.522Z,8.92
2018-08-25T21:48:19.949Z,10.59
2018-08-25T21:54:23.078Z,9.76
2018-08-25T22:04:34.165Z,9.09
2018-08-25T22:04:34.380Z,8.64
2018-08-25T22:10:37.505Z,9.54
2018-08-25T22:14:38.314Z,8.99
2018-08-25T22:20:39.049Z,9.76
2018-08-25T22:24:39.995Z,9.31
2018-08-25T22:26:40.739Z,9.14
2018-08-25T22:30:42.622Z,8.76
2018-08-25T22:36:43.500Z,10.28
2018-08-25T22:40:44.335Z,9.45
2018-08-25T22:46:45.073Z,9.27
2018-08-25T22:50:46.561Z,9.17
2018-08-25T22:52:49.372Z,9.06
2018-08-25T22:56:50.122Z,8.9
2018-08-25T23:02:51.265Z,9.65
2018-08-25T23:06:52.526Z,8.66
2018-08-25T23:12:54.057Z,9.78
2018-08-25T23:18:54.829Z,10.17
2018-08-25T23:22:58.609Z,8.51
2018-08-25T23:29:00.141Z,8.93
2018-08-25T23:33:01.097Z,8.38
2018-08-25T23:39:01.973Z,9.11
2018-08-25T23:45:03.095Z,9.59
2018-08-25T23:49:03.817Z,8.62
2018-08-25T23:55:04.683Z,8.93
2018-08-25T23:59:05.385Z,8.34
